createdAt,value
2023-01-17T00:01:28.722Z,97.68
2023-01-17T00:04:13.965Z,97.59
2023-01-17T00:07:02.522Z,97.37
2023-01-17T00:09:48.093Z,97.34
2023-01-17T00:12:14.888Z,97.32
2023-01-17T00:14:45.120Z,97.41
2023-01-17T00:17:11.990Z,97.61
2023-01-17T00:19:57.425Z,97.46
2023-01-17T00:22:47.524Z,97.35
2023-01-17T00:25:40.736Z,97.23
2023-01-17T00:28:07.380Z,97.24
2023-01-17T00:30:34.065Z,97.31
2023-01-17T00:33:01.182Z,97.09
2023-01-17T00:35:29.256Z,96.92
2023-01-17T00:38:05.020Z,96.72
2023-01-17T00:40:32.957Z,96.67
2023-01-17T00:43:18.196Z,96.73
2023-01-17T00:46:03.812Z,96.63
2023-01-17T00:48:49.267Z,96.47
2023-01-17T00:51:35.359Z,96.30
2023-01-17T00:54:20.902Z,96.17
2023-01-17T00:57:06.818Z,96.24
2023-01-17T00:59:55.348Z,96.21
2023-01-17T01:02:44.490Z,96.11
2023-01-17T01:05:29.940Z,95.99
2023-01-17T01:08:15.953Z,96.14
2023-01-17T01:11:02.096Z,96.13
2023-01-17T01:13:48.459Z,96.04
2023-01-17T01:16:34.435Z,95.93
2023-01-17T01:19:20.666Z,95.87
2023-01-17T01:22:05.961Z,95.97
2023-01-17T01:24:51.561Z,95.88
2023-01-17T01:27:37.512Z,95.68
2023-01-17T01:30:24.187Z,95.58
2023-01-17T01:33:10.038Z,95.72
2023-01-17T01:35:37.010Z,95.61
2023-01-17T01:38:04.036Z,95.44
2023-01-17T01:40:30.989Z,95.54
2023-01-17T01:42:59.361Z,95.59
2023-01-17T01:45:29.486Z,95.23
2023-01-17T01:48:02.185Z,95.27
2023-01-17T01:50:30.029Z,95.23
2023-01-17T01:52:59.212Z,95.07
2023-01-17T01:55:32.395Z,94.90
2023-01-17T01:58:02.102Z,94.89
2023-01-17T02:00:30.482Z,94.98
2023-01-17T06:04:30.383Z,100.00
2023-01-17T06:06:57.387Z,100.00
2023-01-17T06:09:24.325Z,100.00
2023-01-17T06:11:52.110Z,100.00
2023-01-17T06:14:19.060Z,100.00
2023-01-17T06:16:47.926Z,99.99
2023-01-17T06:19:14.827Z,99.76
2023-01-17T06:39:14.847Z,98.06
2023-01-17T06:41:43.241Z,96.14
2023-01-17T06:44:10.316Z,95.93
2023-01-17T06:46:37.623Z,95.62
2023-01-17T06:49:04.660Z,95.61
2023-01-17T06:51:31.612Z,95.69
2023-01-17T06:53:58.640Z,95.51
2023-01-17T06:56:25.577Z,95.44
2023-01-17T06:58:52.573Z,95.47
2023-01-17T07:01:19.661Z,95.47
2023-01-17T07:03:46.803Z,95.47
2023-01-17T08:05:16.703Z,99.11
2023-01-17T08:07:43.691Z,97.83
2023-01-17T08:10:13.276Z,97.45
2023-01-17T08:12:40.201Z,97.26
2023-01-17T08:15:08.304Z,97.11
2023-01-17T08:17:35.250Z,96.76
2023-01-17T08:20:02.444Z,96.60
2023-01-17T08:22:30.918Z,96.54
2023-01-17T08:24:57.955Z,96.66
2023-01-17T08:27:24.884Z,96.54
2023-01-17T08:29:52.375Z,96.29
2023-01-17T08:32:21.579Z,96.16
2023-01-17T08:34:48.569Z,96.39
2023-01-17T08:37:15.579Z,96.49
2023-01-17T08:39:42.532Z,96.25
2023-01-17T08:42:09.539Z,96.28
2023-01-17T08:44:36.546Z,96.33
2023-01-17T08:47:03.509Z,96.25
2023-01-17T08:49:30.519Z,96.11
2023-01-17T08:51:57.579Z,96.28
2023-01-17T08:54:24.474Z,96.30
2023-01-17T08:56:53.023Z,96.10
2023-01-17T08:59:19.988Z,96.21
2023-01-17T09:01:47.099Z,96.37
2023-01-17T09:04:14.357Z,96.32
2023-01-17T09:06:43.012Z,96.14
2023-01-17T09:09:13.832Z,96.17
2023-01-17T09:11:40.748Z,96.40
2023-01-17T09:14:07.803Z,96.36
2023-01-17T09:16:34.825Z,96.14
2023-01-17T09:19:01.820Z,96.13
2023-01-17T09:21:28.739Z,96.35
2023-01-17T09:23:55.836Z,96.33
2023-01-17T09:26:27.803Z,96.02
2023-01-17T09:28:54.765Z,96.05
2023-01-17T09:31:22.299Z,96.28
2023-01-17T09:33:50.061Z,95.93
2023-01-17T09:36:18.976Z,95.66
2023-01-17T09:38:46.190Z,95.59
2023-01-17T09:41:35.610Z,95.78
2023-01-17T09:44:28.224Z,95.60
2023-01-17T09:47:00.342Z,95.22
2023-01-17T09:49:38.254Z,95.36
2023-01-17T09:52:06.124Z,95.36
2023-01-17T09:54:35.792Z,95.13
2023-01-17T16:00:24.390Z,100.00
2023-01-17T16:02:55.946Z,100.00
2023-01-17T16:05:27.972Z,100.00
2023-01-17T16:08:16.301Z,100.00
2023-01-17T16:10:43.524Z,99.99
2023-01-17T16:13:11.784Z,99.96
2023-01-17T16:15:40.414Z,99.74
2023-01-17T16:18:14.941Z,99.43
2023-01-17T16:20:44.254Z,99.25
2023-01-17T16:23:11.209Z,99.35
2023-01-17T16:25:38.545Z,99.15
2023-01-17T16:28:05.836Z,98.95
2023-01-17T16:30:33.319Z,98.96
2023-01-17T16:33:00.435Z,98.98
2023-01-17T16:35:30.187Z,98.88
2023-01-17T16:38:07.951Z,98.42
2023-01-17T16:40:39.510Z,98.36
2023-01-17T16:43:06.738Z,98.41
2023-01-17T16:45:41.206Z,98.14
2023-01-17T16:48:09.051Z,97.99
2023-01-17T16:50:36.022Z,98.10
2023-01-17T16:53:02.983Z,98.02
2023-01-17T16:55:30.044Z,97.66
2023-01-17T16:57:58.309Z,97.66
2023-01-17T17:00:26.874Z,97.85
2023-01-17T17:02:54.097Z,97.89
2023-01-17T17:05:21.158Z,97.64
2023-01-17T17:07:51.521Z,97.68
2023-01-17T17:10:20.362Z,97.84
2023-01-17T17:12:47.411Z,97.76
2023-01-17T17:15:14.434Z,97.55
2023-01-17T17:17:42.252Z,97.44
2023-01-17T17:20:12.185Z,97.41
2023-01-17T17:22:45.486Z,97.49
2023-01-17T17:25:12.601Z,97.29
2023-01-17T17:27:39.544Z,97.14
2023-01-17T17:30:07.655Z,97.06
2023-01-17T17:32:34.591Z,97.31
2023-01-17T17:35:01.513Z,97.36
2023-01-17T17:37:29.291Z,97.25
2023-01-17T17:39:57.193Z,97.02
2023-01-17T17:42:24.212Z,97.00
2023-01-17T17:44:51.243Z,97.15
2023-01-17T17:47:18.219Z,97.13
2023-01-17T17:49:45.277Z,97.04
2023-01-17T17:52:12.346Z,96.95
2023-01-17T17:54:39.232Z,97.11
2023-01-17T17:57:06.700Z,97.25
2023-01-17T17:59:33.991Z,97.27
2023-01-17T18:02:01.632Z,97.27
2023-01-17T22:03:51.295Z,100.00
2023-01-17T22:06:19.271Z,100.00
2023-01-17T22:08:46.072Z,100.00
2023-01-17T22:11:14.577Z,100.00
2023-01-17T22:13:42.161Z,100.00
2023-01-17T22:16:14.140Z,100.00
2023-01-17T22:18:41.854Z,100.00
2023-01-17T22:21:11.329Z,100.00
2023-01-17T22:23:38.730Z,99.97
2023-01-17T22:26:07.540Z,99.78
2023-01-17T22:28:34.358Z,99.71
2023-01-17T22:31:36.924Z,99.63
2023-01-17T22:34:04.405Z,99.38
2023-01-17T22:36:31.525Z,99.02
2023-01-17T22:38:58.535Z,98.97
2023-01-17T22:41:30.725Z,98.94
2023-01-17T22:43:58.790Z,98.96
2023-01-17T22:46:28.289Z,98.82
2023-01-17T22:48:55.825Z,98.82
2023-01-17T22:51:24.880Z,98.69
2023-01-17T22:53:53.655Z,98.60
2023-01-17T22:56:22.386Z,98.48
2023-01-17T22:58:49.685Z,98.45
2023-01-17T23:01:26.832Z,98.42
2023-01-17T23:03:55.568Z,98.29
2023-01-17T23:06:27.602Z,97.87
2023-01-17T23:08:56.501Z,97.01
2023-01-17T23:11:39.035Z,96.23
2023-01-17T23:14:19.052Z,96.03
2023-01-17T23:17:09.189Z,95.84
2023-01-17T23:19:50.468Z,96.16
2023-01-17T23:22:27.356Z,96.58
2023-01-17T23:24:54.791Z,96.72
2023-01-17T23:27:43.375Z,96.78
2023-01-17T23:30:11.599Z,96.89
2023-01-17T23:32:39.487Z,97.07
2023-01-17T23:35:06.557Z,97.49
2023-01-17T23:37:51.946Z,97.97
2023-01-17T23:40:18.757Z,98.38
2023-01-17T23:43:04.501Z,98.45
2023-01-17T23:45:34.285Z,98.59
2023-01-17T23:48:01.513Z,98.84
2023-01-17T23:50:28.381Z,99.00
